createdAt,value
2023-05-04T00:02:21.781Z,102102.31
2023-05-04T00:04:48.912Z,102095.34
2023-05-04T00:07:15.891Z,102089.16
2023-05-04T00:09:42.997Z,102096.28
2023-05-04T00:12:09.968Z,102098.13
2023-05-04T00:14:37.619Z,102100.84
2023-05-04T00:17:06.955Z,102102.72
2023-05-04T00:19:35.157Z,102099.22
2023-05-04T00:22:03.056Z,102099.38
2023-05-04T00:24:30.089Z,102102.88
2023-05-04T00:26:57.145Z,102102.97
2023-05-04T00:29:24.126Z,102100.44
2023-05-04T00:31:51.178Z,102105.81
2023-05-04T00:34:18.864Z,102111.16
2023-05-04T00:36:46.785Z,102113.88
2023-05-04T00:39:13.932Z,102110.38
2023-05-04T00:41:41.344Z,102109.56
2023-05-04T00:44:08.384Z,102106.91
2023-05-04T00:46:36.254Z,102107.91
2023-05-04T00:49:03.530Z,102105.28
2023-05-04T00:51:31.263Z,102105.28
2023-05-04T00:53:58.804Z,102107.16
2023-05-04T00:56:29.159Z,102100.97
2023-05-04T00:58:58.145Z,102115.22
2023-05-04T01:01:26.283Z,102113.50
2023-05-04T01:03:55.424Z,102108.25
2023-05-04T01:06:47.591Z,102111.81
2023-05-04T01:09:37.861Z,102111.00
2023-05-04T01:12:21.918Z,102111.03
2023-05-04T01:14:50.468Z,102116.41
2023-05-04T01:17:17.869Z,102111.09
2023-05-04T01:19:44.861Z,102105.91
2023-05-04T01:22:11.864Z,102105.06
2023-05-04T01:24:39.023Z,102106.03
2023-05-04T01:27:21.790Z,102114.00
2023-05-04T01:29:59.656Z,102106.03
2023-05-04T01:32:30.047Z,102114.91
2023-05-04T01:34:57.651Z,102117.63
2023-05-04T01:37:24.754Z,102115.84
2023-05-04T01:39:52.146Z,102111.47
2023-05-04T01:42:19.206Z,102115.06
2023-05-04T01:44:46.201Z,102115.06
2023-05-04T01:47:13.208Z,102113.31
2023-05-04T01:49:40.173Z,102108.88
2023-05-04T01:52:07.138Z,102109.78
2023-05-04T01:54:34.110Z,102105.34
2023-05-04T01:57:02.311Z,102111.56
2023-05-04T01:59:29.246Z,102106.38
2023-05-04T02:01:56.460Z,102107.22
2023-05-04T02:04:23.440Z,102107.22
2023-05-04T02:06:50.360Z,102104.56
2023-05-04T02:09:17.387Z,102112.50
2023-05-04T02:11:44.334Z,102118.72
2023-05-04T02:14:11.374Z,102113.44
2023-05-04T02:16:38.472Z,102106.38
2023-05-04T02:19:05.539Z,102105.47
2023-05-04T02:21:32.503Z,102105.47
2023-05-04T02:23:59.647Z,102104.69
2023-05-04T02:26:26.671Z,102117.00
2023-05-04T02:28:53.614Z,102102.91
2023-05-04T02:31:20.640Z,102111.69
2023-05-04T02:33:47.599Z,102106.53
2023-05-04T02:36:14.542Z,102101.16
2023-05-04T02:38:41.667Z,102102.94
2023-05-04T02:41:08.611Z,102107.31
2023-05-04T02:43:35.573Z,102099.38
2023-05-04T02:46:02.861Z,102102.81
2023-05-04T02:48:29.907Z,102107.25
2023-05-04T02:50:57.024Z,102104.59
2023-05-04T02:53:23.996Z,102105.53
2023-05-04T02:55:50.905Z,102102.91
2023-05-04T02:58:17.826Z,102101.06
2023-05-04T03:00:44.727Z,102102.91
2023-05-04T03:03:12.159Z,102101.94
2023-05-04T03:05:39.077Z,102089.69
2023-05-04T03:08:06.040Z,102090.47
2023-05-04T03:10:33.045Z,102093.13
2023-05-04T03:13:04.213Z,102099.31
2023-05-04T03:15:31.149Z,102092.22
2023-05-04T03:17:58.128Z,102084.34
2023-05-04T03:20:25.608Z,102091.41
2023-05-04T03:22:52.622Z,102086.03
2023-05-04T03:25:19.676Z,102087.81
2023-05-04T03:27:46.609Z,102084.38
2023-05-04T03:30:13.774Z,102081.59
2023-05-04T03:32:41.296Z,102077.19
2023-05-04T03:35:09.552Z,102079.81
2023-05-04T03:37:36.704Z,102078.97
2023-05-04T03:40:04.278Z,102076.31
2023-05-04T03:42:31.375Z,102075.44
2023-05-04T03:44:58.392Z,102067.47
2023-05-04T03:47:25.403Z,102071.91
2023-05-04T03:49:52.329Z,102074.56
2023-05-04T03:52:19.244Z,102071.88
2023-05-04T03:54:46.407Z,102068.47
2023-05-04T03:57:13.407Z,102064.84
2023-05-04T03:59:40.410Z,102063.06
2023-05-04T04:02:07.370Z,102060.41
2023-05-04T04:04:34.431Z,102063.97
2023-05-04T04:07:01.556Z,102068.34
2023-05-04T04:09:29.287Z,102074.53
2023-05-04T04:11:56.247Z,102060.34
2023-05-04T04:14:23.363Z,102054.19
2023-05-04T04:16:50.349Z,102055.09
2023-05-04T04:19:17.364Z,102039.19
2023-05-04T04:21:44.396Z,102041.84
2023-05-04T04:24:11.582Z,102049.78
2023-05-04T04:26:38.737Z,102041.78
2023-05-04T04:29:05.695Z,102047.09
2023-05-04T04:31:32.774Z,102038.28
2023-05-04T04:33:59.741Z,102032.97
2023-05-04T04:36:27.073Z,102035.63
2023-05-04T04:38:54.376Z,102047.03
2023-05-04T04:41:21.418Z,102046.34
2023-05-04T04:43:48.505Z,102034.13
2023-05-04T04:46:15.912Z,102042.75
2023-05-04T04:48:42.966Z,102036.53
2023-05-04T04:51:13.300Z,102046.94
2023-05-04T04:53:40.326Z,102045.16
2023-05-04T04:56:10.543Z,102060.16
2023-05-04T04:58:37.581Z,102052.19
2023-05-04T05:01:05.450Z,102051.69
2023-05-04T05:03:32.697Z,102050.22
2023-05-04T05:06:02.140Z,102043.25
2023-05-04T05:08:29.536Z,102048.66
2023-05-04T05:10:56.837Z,102047.66
2023-05-04T05:13:23.724Z,102044.00
2023-05-04T05:15:50.941Z,102050.34
2023-05-04T05:18:18.030Z,102051.19
2023-05-04T05:20:44.965Z,102054.59
2023-05-04T05:23:11.950Z,102063.28
2023-05-04T05:25:39.362Z,102058.94
2023-05-04T05:28:06.404Z,102062.59
2023-05-04T05:30:33.489Z,102066.03
2023-05-04T05:33:00.539Z,102066.88
2023-05-04T05:35:27.555Z,102065.94
2023-05-04T05:37:54.543Z,102055.31
2023-05-04T05:40:22.811Z,102051.66
2023-05-04T05:42:49.823Z,102061.31
2023-05-04T05:45:17.002Z,102063.13
2023-05-04T05:47:44.006Z,102064.72
2023-05-04T05:50:14.112Z,102060.16
2023-05-04T05:52:41.194Z,102063.84
2023-05-04T05:55:08.577Z,102063.13
2023-05-04T05:57:35.645Z,102067.56
2023-05-04T06:00:02.940Z,102076.41
2023-05-04T06:02:30.225Z,102071.13
2023-05-04T06:04:57.435Z,102060.50
2023-05-04T06:07:24.508Z,102061.47
2023-05-04T06:09:51.724Z,102058.81
2023-05-04T06:12:18.825Z,102058.84
2023-05-04T06:14:46.328Z,102054.16
2023-05-04T06:17:13.377Z,102054.56
2023-05-04T06:19:40.777Z,102053.22
2023-05-04T06:22:08.019Z,102058.09
2023-05-04T06:24:35.063Z,102050.19
2023-05-04T06:27:02.717Z,102051.00
2023-05-04T06:29:29.719Z,102052.13
2023-05-04T06:31:56.944Z,102048.44
2023-05-04T06:34:24.131Z,102045.66
2023-05-04T06:36:51.268Z,102043.00
2023-05-04T06:39:18.288Z,102045.72
2023-05-04T06:41:45.423Z,102043.94
2023-05-04T06:44:12.529Z,102049.31
2023-05-04T06:46:39.560Z,102039.63
2023-05-04T06:49:06.673Z,102052.00
2023-05-04T06:51:36.607Z,102046.69
2023-05-04T06:54:03.790Z,102048.47
2023-05-04T06:56:31.530Z,102045.81
2023-05-04T06:58:58.631Z,102052.06
2023-05-04T07:01:25.799Z,102038.03
2023-05-04T07:03:52.926Z,102038.88
2023-05-04T07:06:20.558Z,102035.38
2023-05-04T07:08:47.648Z,102036.34
2023-05-04T07:11:14.716Z,102031.19
2023-05-04T07:13:41.746Z,102038.19
2023-05-04T07:16:09.530Z,102030.31
2023-05-04T07:18:36.800Z,102033.00
2023-05-04T07:21:21.732Z,102035.53
2023-05-04T07:23:52.535Z,102033.81
2023-05-04T07:26:19.856Z,102030.31
2023-05-04T07:28:47.174Z,102038.19
2023-05-04T07:31:14.897Z,102041.78
2023-05-04T07:33:42.278Z,102031.97
2023-05-04T07:36:09.470Z,102030.19
2023-05-04T07:38:37.139Z,102031.91
2023-05-04T07:41:04.170Z,102027.47
2023-05-04T07:43:31.306Z,102027.47
2023-05-04T07:46:02.050Z,102030.19
2023-05-04T07:48:29.269Z,102031.91
2023-05-04T07:50:56.437Z,102027.53
2023-05-04T07:53:25.775Z,102028.53
2023-05-04T07:55:54.873Z,102026.00
2023-05-04T07:58:21.978Z,102027.59
2023-05-04T08:00:49.055Z,102024.81
2023-05-04T08:03:17.014Z,102023.91
2023-05-04T08:05:44.084Z,102022.81
2023-05-04T08:08:11.270Z,102018.41
2023-05-04T08:10:39.198Z,102007.59
2023-05-04T08:13:06.461Z,102012.78
2023-05-04T08:15:33.650Z,102005.47
2023-05-04T08:18:00.961Z,102012.34
2023-05-04T08:20:28.376Z,102014.84
2023-05-04T08:22:55.599Z,102010.31
2023-05-04T08:25:23.204Z,102004.03
2023-05-04T08:27:50.628Z,102001.44
2023-05-04T08:30:18.082Z,101998.78
2023-05-04T08:32:45.723Z,101994.22
2023-05-04T08:35:14.447Z,101992.31
2023-05-04T08:37:41.641Z,101985.94
2023-05-04T08:40:09.473Z,101984.06
2023-05-04T08:42:37.152Z,101982.28
2023-05-04T08:45:04.851Z,101976.94
2023-05-04T08:47:32.153Z,101980.38
2023-05-04T08:49:59.247Z,101979.84
2023-05-04T08:52:27.819Z,101987.16
2023-05-04T08:54:56.627Z,101985.38
2023-05-04T08:57:25.148Z,101986.25
2023-05-04T08:59:54.198Z,101985.34
2023-05-04T09:02:23.395Z,101976.63
2023-05-04T09:04:52.284Z,101978.31
2023-05-04T09:07:20.443Z,101978.19
2023-05-04T09:09:48.793Z,101982.75
2023-05-04T09:12:17.287Z,101985.34
2023-05-04T09:14:44.988Z,101979.22
2023-05-04T09:17:26.203Z,101967.81
2023-05-04T09:20:00.232Z,101973.91
2023-05-04T09:22:28.893Z,101966.03
2023-05-04T09:25:07.961Z,101968.59
2023-05-04T09:27:35.002Z,101976.56
2023-05-04T09:30:02.083Z,101965.94
2023-05-04T09:32:30.404Z,101970.34
2023-05-04T09:34:58.268Z,101964.16
2023-05-04T09:37:25.385Z,101972.25
2023-05-04T09:39:59.292Z,101966.03
2023-05-04T09:42:27.243Z,101964.16
2023-05-04T09:45:10.346Z,101969.44
2023-05-04T09:47:39.929Z,101961.41
2023-05-04T09:50:20.629Z,101953.19
2023-05-04T09:52:48.474Z,101949.13
2023-05-04T09:55:18.233Z,101956.94
2023-05-04T09:57:46.759Z,101950.66
2023-05-04T10:00:16.604Z,101946.22
2023-05-04T10:02:45.012Z,101948.81
2023-05-04T10:05:22.014Z,101945.22
2023-05-04T10:07:51.572Z,101937.22
2023-05-04T10:10:18.803Z,101945.16
2023-05-04T10:12:46.312Z,101941.50
2023-05-04T10:15:15.436Z,101948.69
2023-05-04T10:17:57.809Z,101937.22
2023-05-04T10:20:52.373Z,101937.25
2023-05-04T10:23:55.435Z,101936.19
2023-05-04T10:26:44.244Z,101938.06
2023-05-04T10:29:25.676Z,101938.31
2023-05-04T10:31:53.792Z,101929.44
2023-05-04T10:34:32.755Z,101925.84
2023-05-04T10:37:01.108Z,101921.41
2023-05-04T10:39:30.796Z,101913.31
2023-05-04T10:42:02.676Z,101906.91
2023-05-04T10:44:31.477Z,101913.13
2023-05-04T10:47:06.009Z,101900.66
2023-05-04T10:49:34.873Z,101920.88
2023-05-04T10:52:06.017Z,101904.63
2023-05-04T10:54:34.416Z,101904.63
2023-05-04T10:57:06.828Z,101906.50
2023-05-04T10:59:36.491Z,101901.19
2023-05-04T11:02:05.728Z,101894.97
2023-05-04T11:04:34.157Z,101894.16
2023-05-04T11:07:06.835Z,101897.09
2023-05-04T11:09:39.443Z,101897.22
2023-05-04T11:12:07.983Z,101886.72
2023-05-04T11:14:41.848Z,101890.13
2023-05-04T11:17:26.704Z,101883.13
2023-05-04T11:19:54.208Z,101881.47
2023-05-04T11:22:21.818Z,101882.47
2023-05-04T11:24:49.328Z,101881.63
2023-05-04T11:27:28.044Z,101876.50
2023-05-04T11:29:56.298Z,101879.22
2023-05-04T11:32:24.522Z,101883.66
2023-05-04T11:34:52.022Z,101870.53
2023-05-04T11:37:19.518Z,101867.97
2023-05-04T11:39:46.910Z,101864.50
2023-05-04T11:42:14.608Z,101863.66
2023-05-04T11:44:42.112Z,101861.13
2023-05-04T11:47:10.126Z,101862.00
2023-05-04T11:49:37.731Z,101861.13
2023-05-04T11:52:11.692Z,101860.34
2023-05-04T11:54:41.283Z,101847.13
2023-05-04T11:57:08.628Z,101867.47
2023-05-04T11:59:38.784Z,101863.16
2023-05-04T12:02:06.365Z,101865.09
2023-05-04T12:04:33.985Z,101865.94
2023-05-04T12:07:06.702Z,101862.44
2023-05-04T12:09:44.637Z,101859.78
2023-05-04T12:12:11.756Z,101855.31
2023-05-04T12:14:57.197Z,101851.84
2023-05-04T12:17:27.326Z,101856.31
2023-05-04T12:19:56.874Z,101862.56
2023-05-04T12:22:30.813Z,101856.41
2023-05-04T12:25:00.784Z,101842.28
2023-05-04T12:27:29.169Z,101855.53
2023-05-04T12:29:56.734Z,101860.94
2023-05-04T12:32:24.019Z,101854.78
2023-05-04T12:34:52.067Z,101852.19
2023-05-04T12:37:21.071Z,101861.03
2023-05-04T12:39:50.339Z,101848.72
2023-05-04T12:42:19.110Z,101851.44
2023-05-04T12:44:47.910Z,101850.72
2023-05-04T12:47:18.862Z,101846.22
2023-05-04T12:49:48.730Z,101831.22
2023-05-04T12:52:16.099Z,101833.09
2023-05-04T12:54:43.281Z,101836.66
2023-05-04T12:57:11.147Z,101846.41
2023-05-04T12:59:38.443Z,101838.50
2023-05-04T13:02:05.800Z,101843.91
2023-05-04T13:04:33.009Z,101844.88
2023-05-04T13:07:00.051Z,101836.91
2023-05-04T13:09:28.034Z,101832.50
2023-05-04T13:11:55.481Z,101828.97
2023-05-04T13:14:23.162Z,101836.06
2023-05-04T13:16:51.205Z,101835.19
2023-05-04T13:19:18.406Z,101827.31
2023-05-04T13:21:45.446Z,101833.44
2023-05-04T13:24:12.701Z,101826.44
2023-05-04T13:26:41.182Z,101833.88
2023-05-04T13:29:08.269Z,101845.75
2023-05-04T13:31:35.454Z,101817.16
2023-05-04T13:34:02.659Z,101815.34
2023-05-04T13:36:29.821Z,101809.63
2023-05-04T13:38:58.716Z,101798.63
2023-05-04T13:41:26.779Z,101798.50
2023-05-04T13:43:54.866Z,101797.25
2023-05-04T13:46:22.071Z,101807.59
2023-05-04T13:48:49.323Z,101801.38
2023-05-04T13:51:16.715Z,101818.78
2023-05-04T13:53:44.081Z,101813.91
2023-05-04T13:56:11.241Z,101784.81
2023-05-04T13:58:38.411Z,101792.06
2023-05-04T14:01:05.788Z,101785.00
2023-05-04T14:03:33.510Z,101776.28
2023-05-04T14:06:01.718Z,101776.88
2023-05-04T14:08:28.990Z,101757.00
2023-05-04T14:10:56.507Z,101760.81
2023-05-04T14:13:23.999Z,101758.03
2023-05-04T14:15:51.409Z,101758.97
2023-05-04T14:18:19.127Z,101757.94
2023-05-04T14:20:46.198Z,101757.72
2023-05-04T14:23:13.276Z,101753.19
2023-05-04T14:25:42.598Z,101753.19
2023-05-04T14:28:09.909Z,101727.50
2023-05-04T14:30:37.932Z,101742.34
2023-05-04T14:33:08.978Z,101736.19
2023-05-04T14:35:38.239Z,101739.69
2023-05-04T14:38:05.636Z,101738.50
2023-05-04T14:40:33.617Z,101721.88
2023-05-04T14:43:01.691Z,101722.75
2023-05-04T14:45:29.221Z,101719.97
2023-05-04T14:47:56.543Z,101717.31
2023-05-04T14:50:23.683Z,101714.56
2023-05-04T14:52:51.070Z,101706.47
2023-05-04T14:55:18.686Z,101708.19
2023-05-04T14:57:45.996Z,101706.72
2023-05-04T15:00:16.654Z,101711.38
2023-05-04T15:02:45.349Z,101699.78
2023-05-04T15:05:13.322Z,101685.69
2023-05-04T15:07:40.507Z,101684.31
2023-05-04T15:10:09.361Z,101685.28
2023-05-04T15:12:38.189Z,101691.13
2023-05-04T15:15:06.436Z,101682.34
2023-05-04T15:17:33.784Z,101681.31
2023-05-04T15:20:02.808Z,101679.47
2023-05-04T15:22:30.230Z,101677.81
2023-05-04T15:24:58.219Z,101683.09
2023-05-04T15:27:25.664Z,101665.81
2023-05-04T15:29:53.286Z,101692.97
2023-05-04T15:32:21.202Z,101659.31
2023-05-04T15:35:00.949Z,101660.19
2023-05-04T15:37:32.284Z,101652.13
2023-05-04T15:40:01.979Z,101657.22
2023-05-04T15:42:32.732Z,101656.34
2023-05-04T15:45:00.121Z,101648.59
2023-05-04T15:47:27.497Z,101652.03
2023-05-04T15:49:54.830Z,101639.28
2023-05-04T15:52:22.256Z,101639.81
2023-05-04T15:54:49.445Z,101644.91
2023-05-04T15:57:17.196Z,101635.75
2023-05-04T15:59:44.651Z,101646.88
2023-05-04T16:02:12.182Z,101625.28
2023-05-04T16:04:40.464Z,101626.06
2023-05-04T16:07:07.814Z,101624.94
2023-05-04T16:09:35.049Z,101636.19
2023-05-04T16:12:05.659Z,101630.66
2023-05-04T16:14:32.881Z,101619.03
2023-05-04T16:17:03.249Z,101613.69
2023-05-04T16:19:30.410Z,101604.75
2023-05-04T16:21:57.409Z,101598.84
2023-05-04T16:24:24.685Z,101599.06
2023-05-04T16:26:54.063Z,101591.22
2023-05-04T16:29:21.464Z,101588.31
2023-05-04T16:31:48.965Z,101589.63
2023-05-04T16:34:17.206Z,101592.63
2023-05-04T16:36:44.589Z,101597.34
2023-05-04T16:39:11.871Z,101587.19
2023-05-04T16:41:39.080Z,101594.63
2023-05-04T16:44:06.492Z,101582.63
2023-05-04T16:46:34.094Z,101574.22
2023-05-04T16:49:01.414Z,101578.53
2023-05-04T16:51:28.616Z,101582.53
2023-05-04T16:53:56.152Z,101583.16
2023-05-04T16:56:23.471Z,101580.69
2023-05-04T16:58:51.046Z,101587.28
2023-05-04T17:01:18.157Z,101576.78
2023-05-04T17:03:45.286Z,101579.75
2023-05-04T17:06:12.523Z,101579.97
2023-05-04T17:08:39.567Z,101580.66
2023-05-04T17:11:07.494Z,101570.03
2023-05-04T17:13:35.280Z,101568.16
2023-05-04T17:16:02.602Z,101562.53
2023-05-04T17:18:30.193Z,101558.69
2023-05-04T17:20:57.282Z,101572.44
2023-05-04T17:23:26.222Z,101561.69
2023-05-04T17:25:53.324Z,101566.78
2023-05-04T17:28:20.810Z,101560.34
2023-05-04T17:30:48.003Z,101552.13
2023-05-04T17:33:18.788Z,101559.03
2023-05-04T17:35:46.144Z,101548.25
2023-05-04T17:38:13.190Z,101534.00
2023-05-04T17:40:40.394Z,101538.22
2023-05-04T17:43:07.492Z,101538.97
2023-05-04T17:45:34.916Z,101525.69
2023-05-04T17:48:02.214Z,101530.72
2023-05-04T17:50:29.383Z,101529.91
2023-05-04T17:52:56.776Z,101517.53
2023-05-04T17:55:25.017Z,101527.31
2023-05-04T17:57:53.205Z,101512.38
2023-05-04T18:00:21.253Z,101512.38
2023-05-04T18:02:48.603Z,101519.50
2023-05-04T18:05:19.013Z,101511.63
2023-05-04T18:07:46.264Z,101507.25
2023-05-04T18:10:13.524Z,101505.53
2023-05-04T18:12:41.335Z,101514.63
2023-05-04T18:15:09.616Z,101512.41
2023-05-04T18:17:40.646Z,101506.34
2023-05-04T18:20:08.880Z,101503.06
2023-05-04T18:22:37.251Z,101503.06
2023-05-04T18:25:04.588Z,101503.41
2023-05-04T18:27:35.530Z,101498.94
2023-05-04T18:30:04.964Z,101503.59
2023-05-04T18:32:33.069Z,101498.44
2023-05-04T18:35:01.758Z,101503.75
2023-05-04T18:37:32.899Z,101490.72
2023-05-04T18:39:59.891Z,101497.91
2023-05-04T18:42:27.276Z,101488.91
2023-05-04T18:44:55.315Z,101477.19
2023-05-04T18:47:22.909Z,101472.38
2023-05-04T18:49:53.113Z,101471.47
2023-05-04T18:52:21.096Z,101470.44
2023-05-04T18:54:48.802Z,101470.25
2023-05-04T18:57:16.811Z,101474.63
2023-05-04T18:59:44.268Z,101467.44
2023-05-04T19:02:12.496Z,101478.06
2023-05-04T19:04:40.073Z,101471.47
2023-05-04T19:07:07.227Z,101473.59
2023-05-04T19:09:35.329Z,101480.78
2023-05-04T19:12:04.302Z,101478.66
2023-05-04T19:14:32.325Z,101476.00
2023-05-04T19:17:01.404Z,101481.50
2023-05-04T19:19:28.552Z,101481.81
2023-05-04T19:21:55.991Z,101480.13
2023-05-04T19:24:25.639Z,101475.63
2023-05-04T19:26:53.501Z,101471.28
2023-05-04T19:29:20.716Z,101480.13
2023-05-04T19:31:48.416Z,101475.56
2023-05-04T19:34:17.746Z,101472.66
2023-05-04T19:36:45.538Z,101465.31
2023-05-04T19:39:13.880Z,101465.19
2023-05-04T19:41:41.331Z,101465.38
2023-05-04T19:44:10.599Z,101457.00
2023-05-04T19:46:39.528Z,101460.44
2023-05-04T19:49:06.988Z,101467.09
2023-05-04T19:51:34.534Z,101463.25
2023-05-04T19:54:02.058Z,101467.78
2023-05-04T19:56:29.694Z,101459.31
2023-05-04T19:58:57.237Z,101456.66
2023-05-04T20:01:24.813Z,101468.16
2023-05-04T20:03:52.506Z,101465.13
2023-05-04T20:06:19.704Z,101463.25
2023-05-04T20:08:47.655Z,101454.22
2023-05-04T20:11:15.244Z,101455.63
2023-05-04T20:13:43.300Z,101458.88
2023-05-04T20:16:10.535Z,101453.13
2023-05-04T20:18:37.813Z,101450.50
2023-05-04T20:21:05.298Z,101449.34
2023-05-04T20:23:34.021Z,101452.88
2023-05-04T20:26:05.363Z,101436.06
2023-05-04T20:28:33.330Z,101432.47
2023-05-04T20:31:01.911Z,101445.94
2023-05-04T20:33:29.163Z,101441.38
2023-05-04T20:36:00.172Z,101442.19
2023-05-04T20:38:27.381Z,101432.31
2023-05-04T20:40:55.431Z,101426.28
2023-05-04T20:43:22.611Z,101433.34
2023-05-04T20:45:53.614Z,101439.53
2023-05-04T20:48:21.156Z,101429.06
2023-05-04T20:50:57.105Z,101421.16
2023-05-04T20:53:39.583Z,101427.44
2023-05-04T20:56:07.317Z,101417.13
2023-05-04T20:58:34.573Z,101426.28
2023-05-04T21:01:05.807Z,101420.63
2023-05-04T21:03:34.877Z,101420.44
2023-05-04T21:06:02.532Z,101421.63
2023-05-04T21:08:30.299Z,101413.22
2023-05-04T21:10:57.487Z,101411.78
2023-05-04T21:13:25.022Z,101412.91
2023-05-04T21:15:52.363Z,101421.28
2023-05-04T21:18:20.117Z,101412.63
2023-05-04T21:20:47.693Z,101408.44
2023-05-04T21:23:15.199Z,101408.75
2023-05-04T21:25:42.588Z,101408.16
2023-05-04T21:28:09.668Z,101408.22
2023-05-04T21:30:37.048Z,101408.47
2023-05-04T21:33:05.447Z,101398.16
2023-05-04T21:35:32.731Z,101396.63
2023-05-04T21:38:04.388Z,101389.53
2023-05-04T21:40:32.050Z,101387.09
2023-05-04T21:43:00.230Z,101376.69
2023-05-04T21:45:27.368Z,101378.69
2023-05-04T21:47:54.594Z,101381.41
2023-05-04T21:50:21.836Z,101377.97
2023-05-04T21:52:48.923Z,101378.22
2023-05-04T21:55:19.583Z,101376.50
2023-05-04T21:57:46.852Z,101374.88
2023-05-04T22:00:18.773Z,101374.16
2023-05-04T22:02:46.091Z,101371.66
2023-05-04T22:05:13.443Z,101364.72
2023-05-04T22:07:40.855Z,101356.09
2023-05-04T22:10:08.837Z,101362.34
2023-05-04T22:12:36.346Z,101360.59
2023-05-04T22:15:03.815Z,101351.88
2023-05-04T22:17:30.808Z,101343.16
2023-05-04T22:19:58.067Z,101354.06
2023-05-04T22:22:25.199Z,101348.00
2023-05-04T22:24:52.180Z,101348.91
2023-05-04T22:27:19.466Z,101347.28
2023-05-04T22:29:46.636Z,101341.22
2023-05-04T22:32:13.658Z,101335.13
2023-05-04T22:34:40.777Z,101336.16
2023-05-04T22:37:08.045Z,101322.09
2023-05-04T22:39:35.096Z,101315.09
2023-05-04T22:42:02.398Z,101318.69
2023-05-04T22:44:29.552Z,101319.69
2023-05-04T22:46:56.556Z,101322.34
2023-05-04T22:49:23.521Z,101325.09
2023-05-04T22:51:50.605Z,101315.66
2023-05-04T22:54:17.584Z,101314.63
2023-05-04T22:56:44.729Z,101314.69
2023-05-04T22:59:11.848Z,101310.41
2023-05-04T23:01:43.698Z,101302.63
2023-05-04T23:04:11.808Z,101300.91
2023-05-04T23:06:39.440Z,101309.81
2023-05-04T23:09:06.467Z,101317.75
2023-05-04T23:11:33.715Z,101317.91
2023-05-04T23:14:01.376Z,101322.44
2023-05-04T23:16:28.487Z,101316.25
2023-05-04T23:18:55.599Z,101318.16
2023-05-04T23:21:22.624Z,101315.50
2023-05-04T23:23:52.172Z,101308.56
2023-05-04T23:26:19.363Z,101306.00
2023-05-04T23:28:46.448Z,101316.59
2023-05-04T23:31:13.498Z,101300.06
2023-05-04T23:33:40.489Z,101310.59
2023-05-04T23:36:07.835Z,101312.47
2023-05-04T23:38:35.283Z,101305.53
2023-05-04T23:41:05.990Z,101299.38
2023-05-04T23:43:33.011Z,101295.94
2023-05-04T23:46:02.147Z,101301.31
2023-05-04T23:48:30.249Z,101287.19
2023-05-04T23:51:04.382Z,101283.78
2023-05-04T23:53:35.536Z,101278.63
2023-05-04T23:56:04.199Z,101272.47
2023-05-04T23:58:32.292Z,101263.84
